createdAt,value
2019-03-20T00:00:30.791Z,23.10
2019-03-20T00:03:00.026Z,26.03
2019-03-20T00:05:29.251Z,22.90
2019-03-20T00:07:58.847Z,26.77
2019-03-20T00:10:28.862Z,21.37
2019-03-20T00:12:58.025Z,22.57
2019-03-20T00:15:27.503Z,23.40
2019-03-20T00:17:57.433Z,30.30
2019-03-20T00:20:27.154Z,26.77
2019-03-20T00:22:56.782Z,27.83
2019-03-20T00:25:26.358Z,27.40
2019-03-20T00:27:55.553Z,26.97
2019-03-20T00:30:25.031Z,29.27
2019-03-20T00:32:54.281Z,25.87
2019-03-20T00:35:23.489Z,25.63
2019-03-20T00:37:52.958Z,25.63
2019-03-20T00:40:22.141Z,29.13
2019-03-20T00:42:51.435Z,24.13
2019-03-20T00:45:21.408Z,25.70
2019-03-20T00:47:50.603Z,26.10
2019-03-20T00:50:20.185Z,23.63
2019-03-20T00:52:49.331Z,27.30
2019-03-20T00:55:18.873Z,22.10
2019-03-20T00:57:48.874Z,28.87
2019-03-20T01:00:18.519Z,24.77
2019-03-20T01:02:47.675Z,25.23
2019-03-20T01:05:16.932Z,25.47
2019-03-20T01:07:46.845Z,27.53
2019-03-20T01:10:18.104Z,29.60
2019-03-20T01:12:47.677Z,26.90
2019-03-20T01:15:16.972Z,26.17
2019-03-20T01:17:46.219Z,25.97
2019-03-20T01:20:16.807Z,29.13
2019-03-20T01:22:45.960Z,26.03
2019-03-20T01:25:15.831Z,26.20
2019-03-20T01:27:45.384Z,26.37
2019-03-20T01:30:31.806Z,26.13
2019-03-20T01:33:02.421Z,28.47
2019-03-20T01:35:31.717Z,27.80
2019-03-20T01:38:01.286Z,27.93
2019-03-20T01:40:30.452Z,23.60
2019-03-20T01:42:59.884Z,26.80
2019-03-20T01:45:29.068Z,29.37
2019-03-20T01:47:58.598Z,31.87
2019-03-20T01:50:27.849Z,27.90
2019-03-20T01:52:57.012Z,26.77
2019-03-20T01:55:26.230Z,27.37
2019-03-20T01:57:56.013Z,30.60
2019-03-20T02:00:25.248Z,30.40
2019-03-20T02:02:54.699Z,31.13
2019-03-20T02:05:34.744Z,38.20
2019-03-20T02:07:54.829Z,32.00
2019-03-20T02:10:24.088Z,35.13
2019-03-20T02:12:53.250Z,34.67
2019-03-20T02:15:22.402Z,31.40
2019-03-20T02:17:51.951Z,38.33
2019-03-20T02:20:21.564Z,34.67
2019-03-20T02:22:50.746Z,33.90
2019-03-20T02:25:20.252Z,33.43
2019-03-20T02:27:49.761Z,33.53
2019-03-20T02:30:19.195Z,32.60
2019-03-20T02:32:48.534Z,34.00
2019-03-20T02:35:18.124Z,32.67
2019-03-20T02:37:47.753Z,34.27
2019-03-20T02:40:16.914Z,37.63
2019-03-20T02:42:46.582Z,37.07
2019-03-20T02:45:15.869Z,34.00
2019-03-20T02:47:45.355Z,34.47
2019-03-20T02:50:15.134Z,34.60
2019-03-20T02:52:44.457Z,35.97
2019-03-20T02:55:13.758Z,36.10
2019-03-20T02:57:42.992Z,35.40
2019-03-20T03:00:13.975Z,35.63
2019-03-20T03:02:43.205Z,34.40
2019-03-20T03:05:12.940Z,34.90
2019-03-20T03:07:42.742Z,37.63
2019-03-20T03:10:13.179Z,39.77
2019-03-20T03:12:42.430Z,37.13
2019-03-20T03:15:11.974Z,37.33
2019-03-20T03:17:41.138Z,35.00
2019-03-20T03:20:10.707Z,39.87
2019-03-20T03:22:40.049Z,37.50
2019-03-20T03:25:09.558Z,43.03
2019-03-20T03:27:38.715Z,45.33
2019-03-20T03:30:08.713Z,34.80
2019-03-20T03:32:38.585Z,49.13
2019-03-20T03:35:07.755Z,39.33
2019-03-20T03:37:37.075Z,36.57
2019-03-20T03:40:07.944Z,40.40
2019-03-20T03:42:37.156Z,40.20
2019-03-20T03:45:07.776Z,39.90
2019-03-20T03:47:36.945Z,36.47
2019-03-20T03:50:06.844Z,41.37
2019-03-20T03:52:36.536Z,38.43
2019-03-20T03:55:06.702Z,31.77
2019-03-20T03:57:36.491Z,36.87
2019-03-20T04:00:06.540Z,36.70
2019-03-20T04:02:35.728Z,32.87
2019-03-20T04:05:05.482Z,32.77
2019-03-20T04:07:35.049Z,32.63
2019-03-20T04:10:05.108Z,29.57
2019-03-20T04:12:34.642Z,31.80
2019-03-20T04:15:04.922Z,29.47
2019-03-20T04:17:34.480Z,34.07
2019-03-20T04:20:03.793Z,29.30
2019-03-20T04:22:33.056Z,32.33
2019-03-20T04:25:02.249Z,35.63
2019-03-20T04:27:31.500Z,27.30
2019-03-20T04:30:01.045Z,45.03
2019-03-20T04:32:30.338Z,28.00
2019-03-20T04:34:59.660Z,33.73
2019-03-20T04:37:28.901Z,34.50
2019-03-20T04:39:58.482Z,30.70
2019-03-20T04:42:28.024Z,34.90
2019-03-20T04:44:57.222Z,29.00
2019-03-20T04:47:26.460Z,29.60
2019-03-20T04:49:55.981Z,29.13
2019-03-20T04:52:25.126Z,29.67
2019-03-20T04:54:54.672Z,26.37
2019-03-20T04:57:24.346Z,31.37
2019-03-20T04:59:53.914Z,25.17
2019-03-20T05:02:23.449Z,23.93
2019-03-20T05:04:52.640Z,25.63
2019-03-20T05:07:22.251Z,29.17
2019-03-20T05:09:51.484Z,24.63
2019-03-20T05:12:20.979Z,25.33
2019-03-20T05:14:50.513Z,24.77
2019-03-20T05:17:20.088Z,25.23
2019-03-20T05:19:49.914Z,23.10
2019-03-20T05:22:19.122Z,26.10
2019-03-20T05:24:48.280Z,21.23
2019-03-20T05:27:17.437Z,22.60
2019-03-20T05:29:46.670Z,23.53
2019-03-20T05:32:15.802Z,23.63
2019-03-20T05:34:44.977Z,21.00
2019-03-20T05:37:14.142Z,22.90
2019-03-20T05:39:43.296Z,24.13
2019-03-20T05:42:12.802Z,21.17
2019-03-20T05:44:42.015Z,23.40
2019-03-20T05:47:11.278Z,25.50
2019-03-20T05:49:40.424Z,22.97
2019-03-20T05:52:09.602Z,25.30
2019-03-20T05:54:38.764Z,22.53
2019-03-20T05:57:08.273Z,23.80
2019-03-20T05:59:37.460Z,24.17
2019-03-20T06:02:06.732Z,22.70
2019-03-20T06:04:36.278Z,27.83
2019-03-20T06:07:05.472Z,23.07
2019-03-20T06:09:34.718Z,21.13
2019-03-20T06:12:03.902Z,20.73
2019-03-20T06:14:33.228Z,19.10
2019-03-20T06:17:02.380Z,23.47
2019-03-20T06:19:31.544Z,20.53
2019-03-20T06:22:00.719Z,24.97
2019-03-20T06:24:29.958Z,22.63
2019-03-20T06:26:59.762Z,23.77
2019-03-20T06:29:29.349Z,21.87
2019-03-20T06:31:58.891Z,26.40
2019-03-20T06:34:28.902Z,22.47
2019-03-20T06:36:58.148Z,23.47
2019-03-20T06:39:27.396Z,21.97
2019-03-20T06:41:56.704Z,24.53
2019-03-20T06:44:25.906Z,22.17
2019-03-20T06:46:55.126Z,21.97
2019-03-20T06:49:24.358Z,36.33
2019-03-20T06:51:53.543Z,27.07
2019-03-20T06:54:22.779Z,28.67
2019-03-20T06:56:52.267Z,28.50
2019-03-20T07:00:11.934Z,32.57
2019-03-20T07:02:44.747Z,40.23
2019-03-20T07:05:56.629Z,36.60
2019-03-20T07:08:29.080Z,33.00
2019-03-20T07:11:10.093Z,28.77
2019-03-20T07:13:39.263Z,37.43
2019-03-20T07:16:08.451Z,44.93
2019-03-20T07:18:37.861Z,40.33
2019-03-20T07:21:07.133Z,41.83
2019-03-20T07:23:36.770Z,46.37
2019-03-20T07:26:06.005Z,36.30
2019-03-20T07:28:35.299Z,33.30
2019-03-20T07:31:14.782Z,30.70
2019-03-20T07:33:36.238Z,28.97
2019-03-20T07:36:05.856Z,27.13
2019-03-20T07:38:35.321Z,24.10
2019-03-20T07:41:05.109Z,24.63
2019-03-20T07:43:34.343Z,27.00
2019-03-20T07:46:03.509Z,30.80
2019-03-20T07:48:32.746Z,29.10
2019-03-20T07:51:01.973Z,32.17
2019-03-20T07:53:31.216Z,34.90
2019-03-20T07:56:00.501Z,32.70
2019-03-20T07:58:29.741Z,36.30
2019-03-20T08:00:58.958Z,35.43
2019-03-20T08:03:28.617Z,41.50
2019-03-20T08:05:57.833Z,33.33
2019-03-20T08:08:27.117Z,29.50
2019-03-20T08:10:56.539Z,29.83
2019-03-20T08:13:26.038Z,32.53
2019-03-20T08:15:55.221Z,29.87
2019-03-20T08:18:24.649Z,21.13
2019-03-20T08:20:53.898Z,25.97
2019-03-20T08:23:23.161Z,23.73
2019-03-20T08:25:52.355Z,22.30
2019-03-20T08:28:21.571Z,26.30
2019-03-20T08:30:51.230Z,24.13
2019-03-20T08:33:20.832Z,19.43
2019-03-20T08:35:50.077Z,25.27
2019-03-20T08:38:19.727Z,22.37
2019-03-20T08:40:49.091Z,23.40
2019-03-20T08:43:19.197Z,21.53
2019-03-20T08:45:48.781Z,22.30
2019-03-20T08:48:18.064Z,22.20
2019-03-20T08:50:47.334Z,19.70
2019-03-20T08:53:16.501Z,23.03
2019-03-20T08:55:45.671Z,22.00
2019-03-20T08:58:15.155Z,25.50
2019-03-20T09:00:44.439Z,22.53
2019-03-20T09:03:13.719Z,22.47
2019-03-20T09:05:42.906Z,24.93
2019-03-20T09:08:12.151Z,24.97
2019-03-20T09:10:41.462Z,23.73
2019-03-20T09:13:10.739Z,24.77
2019-03-20T09:15:40.462Z,22.23
2019-03-20T09:18:09.669Z,17.63
2019-03-20T09:20:39.531Z,22.20
2019-03-20T09:23:08.804Z,22.80
2019-03-20T09:25:38.075Z,18.93
2019-03-20T09:28:07.597Z,29.93
2019-03-20T09:30:36.842Z,20.63
2019-03-20T09:33:06.084Z,22.80
2019-03-20T09:35:35.265Z,25.00
2019-03-20T09:38:04.473Z,23.67
2019-03-20T09:40:34.121Z,26.63
2019-03-20T09:43:03.937Z,23.53
2019-03-20T09:45:33.195Z,22.53
2019-03-20T09:48:02.659Z,25.37
2019-03-20T09:50:32.287Z,26.60
2019-03-20T09:53:01.450Z,27.17
2019-03-20T09:55:30.709Z,29.77
2019-03-20T09:58:10.973Z,17.00
2019-03-20T10:00:31.202Z,21.03
2019-03-20T10:03:00.501Z,18.67
2019-03-20T10:05:30.190Z,22.23
2019-03-20T10:07:59.760Z,22.63
2019-03-20T10:10:29.346Z,22.33
2019-03-20T10:12:58.702Z,30.47
2019-03-20T10:15:27.968Z,24.73
2019-03-20T10:17:57.290Z,17.83
2019-03-20T10:20:26.624Z,20.93
2019-03-20T10:22:55.998Z,18.60
2019-03-20T10:25:25.349Z,15.63
2019-03-20T10:27:54.503Z,16.10
2019-03-20T10:30:23.758Z,17.40
2019-03-20T10:32:53.109Z,15.90
2019-03-20T10:35:22.714Z,18.30
2019-03-20T10:37:51.892Z,16.63
2019-03-20T10:40:21.743Z,17.87
2019-03-20T10:42:51.183Z,17.47
2019-03-20T10:45:21.169Z,16.97
2019-03-20T10:47:52.760Z,19.43
2019-03-20T10:50:21.691Z,18.10
2019-03-20T10:52:50.888Z,17.93
2019-03-20T10:55:20.498Z,23.43
2019-03-20T10:57:50.010Z,24.33
2019-03-20T11:00:20.318Z,23.83
2019-03-20T11:02:49.556Z,24.07
2019-03-20T11:05:19.046Z,18.73
2019-03-20T11:07:48.666Z,22.97
2019-03-20T11:10:19.319Z,23.53
2019-03-20T11:12:48.925Z,21.63
2019-03-20T11:15:18.288Z,15.90
2019-03-20T11:17:47.591Z,22.43
2019-03-20T11:20:17.598Z,23.40
2019-03-20T11:22:46.801Z,17.73
2019-03-20T11:25:17.020Z,23.77
2019-03-20T11:27:46.284Z,21.17
2019-03-20T11:30:20.539Z,19.47
2019-03-20T11:32:49.726Z,20.30
2019-03-20T11:35:19.241Z,22.33
2019-03-20T11:37:48.859Z,24.70
2019-03-20T11:40:20.880Z,24.23
2019-03-20T11:42:50.493Z,22.90
2019-03-20T11:45:20.004Z,25.23
2019-03-20T11:47:49.324Z,29.57
2019-03-20T11:50:21.322Z,25.20
2019-03-20T11:52:50.962Z,27.70
2019-03-20T11:55:20.149Z,24.50
2019-03-20T11:57:49.387Z,31.50
2019-03-20T12:00:18.908Z,23.00
2019-03-20T12:02:48.258Z,21.87
2019-03-20T12:05:17.792Z,25.43
2019-03-20T12:07:47.342Z,18.17
2019-03-20T12:10:21.137Z,19.53
2019-03-20T12:12:50.882Z,22.97
2019-03-20T12:15:20.146Z,21.63
2019-03-20T12:17:49.442Z,20.77
2019-03-20T12:20:19.399Z,21.43
2019-03-20T12:22:48.976Z,25.33
2019-03-20T12:25:20.415Z,22.53
2019-03-20T12:27:49.652Z,22.93
2019-03-20T12:30:20.780Z,27.40
2019-03-20T12:32:50.309Z,21.47
2019-03-20T12:35:19.577Z,25.87
2019-03-20T12:37:48.914Z,23.27
2019-03-20T12:40:23.272Z,26.13
2019-03-20T12:42:54.518Z,27.20
2019-03-20T12:45:29.457Z,29.33
2019-03-20T12:47:59.058Z,24.60
2019-03-20T12:50:37.934Z,26.43
2019-03-20T12:53:08.786Z,24.60
2019-03-20T12:55:38.066Z,23.60
2019-03-20T12:58:07.350Z,27.17
2019-03-20T13:00:36.536Z,29.07
2019-03-20T13:03:06.179Z,26.53
2019-03-20T13:05:35.778Z,30.37
2019-03-20T13:08:06.403Z,23.23
2019-03-20T13:10:39.129Z,25.50
2019-03-20T13:13:08.426Z,28.50
2019-03-20T13:15:37.735Z,25.90
2019-03-20T13:18:06.922Z,25.63
2019-03-20T13:20:36.450Z,23.37
2019-03-20T13:23:08.270Z,20.00
2019-03-20T13:25:37.443Z,22.53
2019-03-20T13:28:07.142Z,23.30
2019-03-20T13:30:42.113Z,17.97
2019-03-20T13:33:11.656Z,24.63
2019-03-20T13:35:40.828Z,24.33
2019-03-20T13:38:10.074Z,25.10
2019-03-20T13:40:39.244Z,25.10
2019-03-20T13:43:08.778Z,23.73
2019-03-20T13:45:38.236Z,22.30
2019-03-20T13:48:07.416Z,21.83
2019-03-20T13:50:36.571Z,22.50
2019-03-20T13:53:06.196Z,23.17
2019-03-20T13:55:35.817Z,23.40
2019-03-20T13:58:05.061Z,33.93
2019-03-20T14:00:34.710Z,22.20
2019-03-20T14:03:03.986Z,23.40
2019-03-20T14:05:33.251Z,18.73
2019-03-20T14:08:02.589Z,17.33
2019-03-20T14:10:32.577Z,21.30
2019-03-20T14:13:02.097Z,18.80
2019-03-20T14:15:31.368Z,20.20
2019-03-20T14:18:00.619Z,18.50
2019-03-20T14:20:29.881Z,15.00
2019-03-20T14:22:59.388Z,13.37
2019-03-20T14:25:28.896Z,17.70
2019-03-20T14:27:58.407Z,19.60
2019-03-20T14:30:27.673Z,14.60
2019-03-20T14:32:58.015Z,21.30
2019-03-20T14:35:27.253Z,16.63
2019-03-20T14:37:57.461Z,14.63
2019-03-20T14:40:35.432Z,19.47
2019-03-20T14:42:59.573Z,14.87
2019-03-20T14:45:28.903Z,15.63
2019-03-20T14:47:58.411Z,16.33
2019-03-20T14:50:28.146Z,15.27
2019-03-20T14:52:57.420Z,12.40
2019-03-20T14:55:26.749Z,16.17
2019-03-20T14:57:56.114Z,11.57
2019-03-20T15:00:26.031Z,14.30
2019-03-20T15:02:55.531Z,15.40
2019-03-20T15:05:25.177Z,16.10
2019-03-20T15:07:54.465Z,17.70
2019-03-20T15:10:23.691Z,14.77
2019-03-20T15:12:53.298Z,18.77
2019-03-20T15:15:31.933Z,12.47
2019-03-20T15:18:01.192Z,12.70
2019-03-20T15:20:30.725Z,19.90
2019-03-20T15:23:01.049Z,15.57
2019-03-20T15:25:30.553Z,15.67
2019-03-20T15:28:00.175Z,16.80
2019-03-20T15:30:29.877Z,16.03
2019-03-20T15:32:59.544Z,15.67
2019-03-20T15:35:28.785Z,18.57
2019-03-20T15:37:58.025Z,18.83
2019-03-20T15:40:27.525Z,18.53
2019-03-20T15:42:57.152Z,19.97
2019-03-20T15:45:26.734Z,12.40
2019-03-20T15:47:55.965Z,13.63
2019-03-20T15:50:25.920Z,17.80
2019-03-20T15:52:55.237Z,18.93
2019-03-20T15:55:26.647Z,16.50
2019-03-20T15:57:55.823Z,18.37
2019-03-20T16:00:25.375Z,43.57
2019-03-20T16:02:57.589Z,25.93
2019-03-20T16:05:26.773Z,14.57
2019-03-20T16:07:55.973Z,20.67
2019-03-20T16:10:25.632Z,18.60
2019-03-20T16:12:54.827Z,14.90
2019-03-20T16:15:24.182Z,12.17
2019-03-20T16:17:53.580Z,13.67
2019-03-20T16:20:22.845Z,16.23
2019-03-20T16:22:52.176Z,18.27
2019-03-20T16:25:22.343Z,17.13
2019-03-20T16:27:51.891Z,16.17
2019-03-20T16:30:22.337Z,21.53
2019-03-20T16:32:51.771Z,18.83
2019-03-20T16:35:20.935Z,15.43
2019-03-20T16:37:50.477Z,15.37
2019-03-20T16:40:21.314Z,19.60
2019-03-20T16:42:50.663Z,20.37
2019-03-20T16:45:25.282Z,16.30
2019-03-20T16:47:54.813Z,19.07
2019-03-20T16:50:24.599Z,16.87
2019-03-20T16:52:53.950Z,22.20
2019-03-20T16:55:23.164Z,17.97
2019-03-20T16:57:52.537Z,14.63
2019-03-20T17:00:24.341Z,17.83
2019-03-20T17:02:54.163Z,21.93
2019-03-20T17:05:24.912Z,18.57
2019-03-20T17:07:54.098Z,20.70
2019-03-20T17:10:34.679Z,16.67
2019-03-20T17:13:04.405Z,20.63
2019-03-20T17:15:34.008Z,20.80
2019-03-20T17:18:03.345Z,17.23
2019-03-20T17:20:32.646Z,19.83
2019-03-20T17:23:01.839Z,17.10
2019-03-20T17:25:31.078Z,19.80
2019-03-20T17:28:00.410Z,19.07
2019-03-20T17:30:31.421Z,22.43
2019-03-20T17:33:00.969Z,19.70
2019-03-20T17:35:39.013Z,21.67
2019-03-20T17:38:10.019Z,21.63
2019-03-20T17:40:41.534Z,20.43
2019-03-20T17:43:11.920Z,21.47
2019-03-20T17:45:41.112Z,16.13
2019-03-20T17:48:10.367Z,25.47
2019-03-20T17:50:39.581Z,18.50
2019-03-20T17:53:09.005Z,23.57
2019-03-20T17:55:38.511Z,21.43
2019-03-20T17:58:07.996Z,21.93
2019-03-20T18:00:48.365Z,20.47
2019-03-20T18:03:18.205Z,20.77
2019-03-20T18:05:48.269Z,24.10
2019-03-20T18:08:18.043Z,20.83
2019-03-20T18:10:47.749Z,23.97
2019-03-20T18:13:17.339Z,16.50
2019-03-20T18:15:46.870Z,21.17
2019-03-20T18:18:16.144Z,19.30
2019-03-20T18:20:45.796Z,16.53
2019-03-20T18:23:15.181Z,18.40
2019-03-20T18:25:44.795Z,24.03
2019-03-20T18:28:14.127Z,20.97
2019-03-20T18:30:43.364Z,17.63
2019-03-20T18:33:12.636Z,19.63
2019-03-20T18:35:41.851Z,20.80
2019-03-20T18:38:11.085Z,18.50
2019-03-20T18:40:40.347Z,17.80
2019-03-20T18:43:09.985Z,19.53
2019-03-20T18:45:39.132Z,15.30
2019-03-20T18:48:08.313Z,24.13
2019-03-20T18:50:37.852Z,19.27
2019-03-20T18:53:07.538Z,20.77
2019-03-20T18:55:37.072Z,17.20
2019-03-20T18:58:06.327Z,13.93
2019-03-20T19:00:35.832Z,17.50
2019-03-20T19:03:05.932Z,17.87
2019-03-20T19:06:02.286Z,17.00
2019-03-20T19:08:32.210Z,16.77
2019-03-20T19:11:01.539Z,19.63
2019-03-20T19:13:30.818Z,17.23
2019-03-20T19:16:00.768Z,21.27
2019-03-20T19:18:30.044Z,19.83
2019-03-20T19:20:59.380Z,18.63
2019-03-20T19:23:28.713Z,20.43
2019-03-20T19:25:58.018Z,20.90
2019-03-20T19:28:27.544Z,17.70
2019-03-20T19:30:56.728Z,16.17
2019-03-20T19:33:26.014Z,20.87
2019-03-20T19:35:55.260Z,18.37
2019-03-20T19:38:34.527Z,22.30
2019-03-20T19:40:56.305Z,22.23
2019-03-20T19:43:28.605Z,21.37
2019-03-20T19:45:57.800Z,21.47
2019-03-20T19:48:29.405Z,20.13
2019-03-20T19:50:58.025Z,21.40
2019-03-20T19:53:27.188Z,21.63
2019-03-20T19:55:56.809Z,22.30
2019-03-20T19:58:26.102Z,21.67
2019-03-20T20:00:55.685Z,22.27
2019-03-20T20:03:24.922Z,19.60
2019-03-20T20:05:54.238Z,22.33
2019-03-20T20:08:23.563Z,25.30
2019-03-20T20:10:53.304Z,22.87
2019-03-20T20:13:22.864Z,22.90
2019-03-20T20:15:52.420Z,21.80
2019-03-20T20:18:21.666Z,21.30
2019-03-20T20:20:50.920Z,23.70
2019-03-20T20:23:20.787Z,28.30
2019-03-20T20:25:49.939Z,26.07
2019-03-20T20:28:19.192Z,23.43
2019-03-20T20:30:48.393Z,23.43
2019-03-20T20:33:17.720Z,22.17
2019-03-20T20:35:47.313Z,21.40
2019-03-20T20:38:16.947Z,25.37
2019-03-20T20:40:46.435Z,21.80
2019-03-20T20:43:15.630Z,23.17
2019-03-20T20:45:44.824Z,23.00
2019-03-20T20:48:14.058Z,23.00
2019-03-20T20:50:43.252Z,24.23
2019-03-20T20:53:12.528Z,24.80
2019-03-20T20:55:41.772Z,23.30
2019-03-20T20:58:10.959Z,22.53
2019-03-20T21:00:40.143Z,26.43
2019-03-20T21:03:09.622Z,28.33
2019-03-20T21:05:38.896Z,21.37
2019-03-20T21:08:08.782Z,30.17
2019-03-20T21:10:38.032Z,26.30
2019-03-20T21:13:07.506Z,20.33
2019-03-20T21:15:39.088Z,25.30
2019-03-20T21:18:41.663Z,24.23
2019-03-20T21:21:11.370Z,28.00
2019-03-20T21:24:16.690Z,28.27
2019-03-20T21:27:15.414Z,26.30
2019-03-20T21:30:25.515Z,24.77
2019-03-20T21:32:56.068Z,22.27
2019-03-20T21:36:15.843Z,24.27
2019-03-20T21:38:47.046Z,29.07
2019-03-20T21:42:02.954Z,30.27
2019-03-20T21:45:26.706Z,29.77
2019-03-20T21:47:56.505Z,27.80
2019-03-20T21:51:22.457Z,24.53
2019-03-20T21:54:19.635Z,27.13
2019-03-20T21:57:05.951Z,24.67
2019-03-20T21:59:52.380Z,23.73
2019-03-20T22:02:45.322Z,30.20
2019-03-20T22:05:26.400Z,26.80
2019-03-20T22:07:56.183Z,30.93
2019-03-20T22:11:01.401Z,25.57
2019-03-20T22:13:58.265Z,29.57
2019-03-20T22:17:05.276Z,26.00
2019-03-20T22:19:59.156Z,29.37
2019-03-20T22:23:15.256Z,30.93
2019-03-20T22:26:27.780Z,30.07
2019-03-20T22:29:08.319Z,30.30
2019-03-20T22:31:40.399Z,29.67
2019-03-20T22:34:58.217Z,35.77
2019-03-20T22:37:27.941Z,34.57
2019-03-20T22:40:43.826Z,27.37
2019-03-20T22:43:51.498Z,34.00
2019-03-20T22:47:10.857Z,32.63
2019-03-20T22:50:15.965Z,31.83
2019-03-20T22:53:13.707Z,33.77
2019-03-20T22:56:05.428Z,27.37
2019-03-20T22:58:45.657Z,33.07
2019-03-20T23:01:41.376Z,36.53
2019-03-20T23:04:19.048Z,31.83
2019-03-20T23:06:49.197Z,31.23
2019-03-20T23:09:18.919Z,35.20
2019-03-20T23:11:48.669Z,38.03
2019-03-20T23:14:18.842Z,30.37
2019-03-20T23:16:48.584Z,31.30
2019-03-20T23:19:18.937Z,36.90
2019-03-20T23:21:48.713Z,38.07
2019-03-20T23:24:18.497Z,31.73
2019-03-20T23:26:48.660Z,36.13
2019-03-20T23:29:18.451Z,34.03
2019-03-20T23:31:47.898Z,39.23
2019-03-20T23:34:17.690Z,37.23
2019-03-20T23:36:47.847Z,40.73
2019-03-20T23:39:17.665Z,40.00
2019-03-20T23:41:48.055Z,38.97
2019-03-20T23:44:18.121Z,35.67
2019-03-20T23:46:47.999Z,41.67
2019-03-20T23:49:20.209Z,39.03
2019-03-20T23:51:49.991Z,34.73
2019-03-20T23:54:23.076Z,42.47
2019-03-20T23:56:52.841Z,38.10
2019-03-20T23:59:22.633Z,37.77
